Time;durP1;ratioP1;P1;durP2;ratioP2;P2;SDS_P1;SDS_P2;PMS_P1;PMS_P2;Temp;Humidity;BMP_temperature;BMP_pressure;BME280_temperature;BME280_humidity;BME280_pressure;Samples;Min_cycle;Max_cycle;Signal;HPM_P1;HPM_P2
2022/08/22 00:01:35;;;;;;;4.82;3.83;;;;;;;16.79;85.72;101730.25;5049261;28;20239;-78
2022/08/22 00:04:35;;;;;;;10.65;3.58;;;;;;;16.79;85.84;101727.56;5048984;28;20050;-78
2022/08/22 00:07:10;;;;;;;6.85;3.67;;;;;;;16.77;85.70;101722.63;5049092;28;20053;-78
2022/08/22 00:10:07;;;;;;;6.57;3.78;;;;;;;16.78;85.27;101723.38;5032081;28;20057;-78
2022/08/22 00:12:49;;;;;;;6.65;4.15;;;;;;;16.76;85.36;101723.84;5032108;28;20049;-78
2022/08/22 00:15:46;;;;;;;7.25;3.88;;;;;;;16.75;85.77;101730.41;5049161;28;20088;-77
2022/08/22 00:18:17;;;;;;;5.40;3.50;;;;;;;16.72;85.68;101720.56;5045181;28;20058;-78
2022/08/22 00:20:51;;;;;;;8.95;3.65;;;;;;;16.72;85.27;101723.25;5031593;28;20046;-78
2022/08/22 00:23:29;;;;;;;7.40;3.83;;;;;;;16.72;85.81;101725.94;5029753;28;20054;-77
2022/08/22 00:26:20;;;;;;;6.40;3.55;;;;;;;16.73;85.83;101719.38;5031524;28;20046;-77
2022/08/22 00:28:53;;;;;;;10.30;3.67;;;;;;;16.71;86.30;101718.34;5013876;28;20103;-77
2022/08/22 00:31:20;;;;;;;8.93;4.05;;;;;;;16.67;85.46;101719.25;5029815;28;20054;-77
2022/08/22 00:33:54;;;;;;;7.53;3.88;;;;;;;16.67;85.91;101723.88;5031530;28;20046;-77
2022/08/22 00:36:33;;;;;;;4.32;3.40;;;;;;;16.66;86.61;101730.47;5029961;28;20521;-78
2022/08/22 00:39:08;;;;;;;7.07;3.67;;;;;;;16.63;86.24;101726.72;5033005;28;20411;-77
2022/08/22 00:41:38;;;;;;;6.95;4.22;;;;;;;16.61;86.05;101733.75;5032953;28;20053;-76
2022/08/22 00:44:35;;;;;;;10.65;3.65;;;;;;;16.62;85.88;101727.91;5033065;28;20100;-77
2022/08/22 00:47:18;;;;;;;4.65;3.25;;;;;;;16.60;86.33;101730.31;5033052;28;20049;-78
2022/08/22 00:50:04;;;;;;;7.35;3.80;;;;;;;16.57;86.75;101735.88;5033763;28;20045;-78
2022/08/22 00:53:07;;;;;;;6.30;3.55;;;;;;;16.56;85.97;101731.69;5032704;28;20614;-78
2022/08/22 00:55:49;;;;;;;7.35;3.55;;;;;;;16.55;86.11;101740.94;5016550;28;20108;-78
2022/08/22 00:58:37;;;;;;;6.60;3.65;;;;;;;16.52;86.09;101739.91;5034979;28;20065;-78
2022/08/22 01:01:11;;;;;;;5.65;3.28;;;;;;;16.51;86.98;101738.44;5033169;28;20057;-78
2022/08/22 01:03:45;;;;;;;7.05;3.67;;;;;;;16.49;87.25;101738.13;5033384;28;20116;-78
2022/08/22 01:06:14;;;;;;;5.25;3.20;;;;;;;16.49;86.91;101734.69;5033143;28;20050;-78
2022/08/22 01:09:07;;;;;;;4.05;3.13;;;;;;;16.47;86.79;101729.78;5033574;28;20511;-78
2022/08/22 01:12:04;;;;;;;8.65;3.63;;;;;;;16.40;86.79;101737.44;5032245;28;20053;-78
2022/08/22 01:14:37;;;;;;;8.00;3.33;;;;;;;16.37;86.94;101739.13;5031998;28;20788;-78
2022/08/22 01:17:28;;;;;;;6.80;3.30;;;;;;;16.34;87.25;101738.06;5033744;28;20447;-78
2022/08/22 01:20:29;;;;;;;6.28;3.22;;;;;;;16.35;87.26;101738.81;5033173;28;20053;-78
2022/08/22 01:23:40;;;;;;;5.28;3.42;;;;;;;16.35;87.37;101736.13;5032182;28;20565;-78
2022/08/22 01:26:44;;;;;;;7.95;3.58;;;;;;;16.34;88.00;101732.69;5026296;28;20058;-78
2022/08/22 01:29:39;;;;;;;5.80;3.22;;;;;;;16.33;87.75;101731.22;5016309;28;20054;-78
2022/08/22 01:32:28;;;;;;;5.88;3.35;;;;;;;16.32;87.83;101731.66;5016116;28;20145;-78
2022/08/22 01:35:14;;;;;;;9.93;3.55;;;;;;;16.31;87.92;101736.31;5015926;28;20506;-79
2022/08/22 01:37:55;;;;;;;3.25;2.95;;;;;;;16.27;88.13;101734.97;5032981;28;20487;-78
2022/08/22 01:40:48;;;;;;;5.05;3.50;;;;;;;16.26;88.26;101741.53;5016431;28;20054;-79
2022/08/22 01:43:49;;;;;;;5.40;2.85;;;;;;;16.23;88.06;101737.81;5016777;28;20061;-79
2022/08/22 01:46:56;;;;;;;5.78;3.10;;;;;;;16.22;88.26;101741.72;5017272;28;20485;-78
2022/08/22 01:49:40;;;;;;;5.43;3.05;;;;;;;16.20;88.41;101736.03;5015633;28;20510;-79
2022/08/22 01:52:14;;;;;;;5.80;3.15;;;;;;;16.12;89.15;101737.56;5016117;28;20054;-78
2022/08/22 01:55:02;;;;;;;4.80;3.17;;;;;;;16.08;89.04;101738.91;5033845;28;20065;-79
2022/08/22 01:57:29;;;;;;;5.93;3.28;;;;;;;16.11;89.07;101735.31;5015982;28;20046;-78
2022/08/22 02:00:06;;;;;;;5.97;3.17;;;;;;;16.14;88.39;101735.16;5015693;28;20161;-78
2022/08/22 02:02:56;;;;;;;;;;;;;;;16.17;87.69;101736.94;5030780;28;20100;-78
2022/08/22 02:05:35;;;;;;;4.75;3.38;;;;;;;16.17;88.15;101734.25;5031829;28;19925;-79
2022/08/22 02:08:17;;;;;;;6.30;4.00;;;;;;;16.17;88.39;101730.84;5015419;28;20054;-78
2022/08/22 02:11:04;;;;;;;9.27;3.55;;;;;;;16.14;87.79;101732.47;5015633;28;20093;-78
2022/08/22 02:13:57;;;;;;;7.18;3.53;;;;;;;16.15;88.41;101735.91;5032264;28;20050;-79
2022/08/22 02:16:29;;;;;;;5.70;3.67;;;;;;;16.14;88.23;101726.38;5015711;28;20050;-79
2022/08/22 02:19:17;;;;;;;9.38;3.38;;;;;;;16.13;87.96;101733.69;5031438;28;20521;-78
2022/08/22 02:21:58;;;;;;;8.13;3.78;;;;;;;16.12;87.94;101734.88;5032060;28;20104;-78
2022/08/22 02:24:36;;;;;;;10.95;3.60;;;;;;;16.07;87.81;101719.38;5015543;28;20144;-78
2022/08/22 02:27:22;;;;;;;5.47;3.13;;;;;;;16.05;87.79;101719.09;5015277;28;20538;-78
2022/08/22 02:30:08;;;;;;;6.63;3.20;;;;;;;16.05;88.15;101718.34;5032200;28;20054;-78
2022/08/22 02:33:01;;;;;;;8.48;3.00;;;;;;;16.04;87.70;101720.28;5014794;28;20490;-78
2022/08/22 02:35:38;;;;;;;5.75;3.47;;;;;;;16.02;87.97;101718.03;5015253;28;20534;-78
2022/08/22 02:38:18;;;;;;;6.63;3.88;;;;;;;16.04;88.14;101728.34;5015268;28;20058;-78
2022/08/22 02:41:06;;;;;;;8.88;3.33;;;;;;;16.05;88.10;101721.03;5031836;28;20054;-78
2022/08/22 02:43:44;;;;;;;11.70;4.10;;;;;;;16.02;88.46;101715.34;5031589;28;20053;-78
2022/08/22 02:46:25;;;;;;;8.18;3.45;;;;;;;16.01;88.57;101715.81;5031841;28;20049;-78
2022/08/22 02:49:08;;;;;;;8.85;3.45;;;;;;;16.02;88.52;101714.63;5014809;28;20061;-78
2022/08/22 02:52:01;;;;;;;7.15;3.38;;;;;;;16.01;88.59;101718.50;5031619;28;20046;-78
2022/08/22 02:54:46;;;;;;;5.57;3.20;;;;;;;16.01;88.25;101721.19;5015015;28;20084;-78
2022/08/22 02:57:21;;;;;;;7.68;3.80;;;;;;;16.00;88.22;101723.13;5032906;28;20443;-78
2022/08/22 03:00:07;;;;;;;8.13;3.42;;;;;;;16.01;88.24;101716.56;5030969;28;20077;-78
2022/08/22 03:03:32;;;;;;;10.98;3.85;;;;;;;16.02;88.11;101717.31;5030480;28;20131;-77
2022/08/22 03:06:26;;;;;;;7.65;3.58;;;;;;;16.00;88.38;101715.06;5014942;28;20449;-78
2022/08/22 03:09:15;;;;;;;6.60;3.60;;;;;;;15.99;87.89;101716.25;5032503;28;20098;-78
2022/08/22 03:12:00;;;;;;;10.18;3.72;;;;;;;15.99;88.48;101712.88;5031462;28;20050;-78
2022/08/22 03:14:33;;;;;;;12.18;3.65;;;;;;;15.97;88.25;101704.50;5031056;28;20053;-78
2022/08/22 03:16:59;;;;;;;6.10;3.58;;;;;;;15.97;88.36;101704.50;5014062;28;20054;-78
2022/08/22 03:19:48;;;;;;;10.05;3.50;;;;;;;15.98;88.70;101714.06;5030704;28;20061;-78
2022/08/22 03:22:32;;;;;;;8.85;3.85;;;;;;;15.98;88.29;101714.06;5014641;28;20046;-78
2022/08/22 03:25:06;;;;;;;5.90;3.42;;;;;;;15.96;88.20;101701.09;5014459;28;20538;-78
2022/08/22 03:27:58;;;;;;;7.75;3.80;;;;;;;15.97;87.75;101697.19;5030819;28;20488;-78
2022/08/22 03:30:39;;;;;;;7.35;3.40;;;;;;;15.97;87.61;101701.81;5030283;28;20049;-78
2022/08/22 03:33:27;;;;;;;4.60;3.53;;;;;;;15.97;87.61;101696.47;5030581;28;20513;-78
2022/08/22 03:36:02;;;;;;;6.35;3.50;;;;;;;15.95;87.97;101696.91;5030501;28;20046;-78
2022/08/22 03:38:32;;;;;;;4.78;3.47;;;;;;;15.94;88.08;101686.63;5013957;28;20058;-78
2022/08/22 03:41:32;;;;;;;4.57;3.30;;;;;;;15.94;87.38;101689.31;5030386;28;20033;-78
2022/08/22 03:44:37;;;;;;;4.90;3.35;;;;;;;15.95;87.36;101685.41;5030627;28;20045;-78
2022/08/22 03:47:25;;;;;;;8.93;3.60;;;;;;;15.94;87.71;101687.38;5013867;28;20057;-78
2022/08/22 03:50:23;;;;;;;7.55;3.80;;;;;;;15.96;87.92;101694.97;5031842;28;20510;-78
2022/08/22 03:53:11;;;;;;;3.47;3.03;;;;;;;15.92;88.24;101681.69;5030220;28;20549;-78
2022/08/22 03:56:03;;;;;;;5.38;3.28;;;;;;;15.91;88.18;101684.84;5014862;28;20054;-78
2022/08/22 03:58:59;;;;;;;5.93;3.63;;;;;;;15.91;88.02;101690.94;5013765;28;20443;-78
2022/08/22 04:01:49;;;;;;;15.65;4.10;;;;;;;15.93;88.29;101690.50;5013118;28;20049;-78
2022/08/22 04:04:59;;;;;;;4.78;3.60;;;;;;;15.94;87.91;101692.00;5030484;28;20056;-78
2022/08/22 04:07:51;;;;;;;7.70;3.42;;;;;;;15.94;87.73;101698.09;5029730;28;20054;-78
2022/08/22 04:10:34;;;;;;;5.13;3.50;;;;;;;15.95;88.15;101693.47;5030699;28;20495;-79
2022/08/22 04:13:04;;;;;;;7.70;3.70;;;;;;;15.96;88.60;101698.41;5034677;28;20038;-79
2022/08/22 04:15:52;;;;;;;3.85;3.45;;;;;;;15.96;88.74;101689.59;5032938;28;20053;-79
2022/08/22 04:18:22;;;;;;;7.28;3.88;;;;;;;15.95;88.40;101688.84;5017474;28;20093;-79
2022/08/22 04:21:18;;;;;;;4.95;3.53;;;;;;;15.96;88.54;101690.34;5033949;28;20046;-79
2022/08/22 04:24:12;;;;;;;7.35;4.05;;;;;;;15.95;88.52;101686.16;5016862;28;20050;-79
2022/08/22 04:27:11;;;;;;;4.55;3.65;;;;;;;15.95;88.48;101688.09;5033971;28;20057;-79
2022/08/22 04:29:44;;;;;;;5.78;3.60;;;;;;;15.93;88.78;101696.63;5033048;28;20116;-79
2022/08/22 04:32:36;;;;;;;8.00;4.03;;;;;;;15.94;88.29;101697.34;5016866;28;20045;-79
2022/08/22 04:35:08;;;;;;;4.90;3.65;;;;;;;15.93;88.00;101699.31;5033245;28;20471;-79
2022/08/22 04:37:57;;;;;;;7.50;3.80;;;;;;;15.95;88.44;101704.97;5016841;28;20058;-80
2022/08/22 04:40:33;;;;;;;7.03;3.50;;;;;;;15.94;88.73;101700.78;5016445;28;20081;-79
2022/08/22 04:43:08;;;;;;;8.27;3.95;;;;;;;15.95;88.22;101698.84;5032635;28;20050;-79
2022/08/22 04:45:45;;;;;;;7.70;3.95;;;;;;;15.95;88.37;101698.84;5033061;28;20080;-80
2022/08/22 04:48:26;;;;;;;7.53;3.58;;;;;;;15.93;88.49;101704.66;5034296;28;20061;-81
2022/08/22 04:51:17;;;;;;;5.30;3.30;;;;;;;15.94;88.85;101702.72;5034239;28;20490;-77
2022/08/22 04:53:46;;;;;;;7.38;3.28;;;;;;;15.94;89.14;101706.16;5032747;28;20058;-79
2022/08/22 04:56:22;;;;;;;7.38;3.80;;;;;;;15.94;89.00;101708.09;5033071;28;20161;-78
2022/08/22 04:59:00;;;;;;;8.10;3.92;;;;;;;15.93;88.54;101709.28;5033762;28;20120;-78
2022/08/22 05:01:45;;;;;;;5.13;3.60;;;;;;;15.93;88.32;101712.72;5032898;28;20136;-78
2022/08/22 05:04:19;;;;;;;5.53;3.65;;;;;;;15.92;88.57;101711.25;5033012;28;20046;-78
2022/08/22 05:06:52;;;;;;;7.85;3.95;;;;;;;15.94;88.72;101710.78;5016952;28;20122;-85
2022/08/22 05:09:26;;;;;;;7.53;4.20;;;;;;;15.94;88.80;101714.22;5034857;28;20046;-89
2022/08/22 05:11:56;;;;;;;9.23;4.60;;;;;;;15.97;88.98;101712.56;5033159;28;20049;-84
2022/08/22 05:14:35;;;;;;;5.88;4.28;;;;;;;16.01;89.21;101711.19;5016230;28;20053;-85
2022/08/22 05:17:06;;;;;;;7.75;3.95;;;;;;;16.01;88.82;101705.06;5017395;28;20053;-91
2022/08/22 05:19:37;;;;;;;9.43;4.25;;;;;;;16.00;88.98;101708.94;5035433;28;20038;-84
2022/08/22 05:22:13;;;;;;;10.80;4.43;;;;;;;16.01;89.05;101705.81;5032213;28;20137;-84
2022/08/22 05:24:45;;;;;;;5.82;4.05;;;;;;;16.04;88.77;101703.41;5015668;28;20050;-85
2022/08/22 05:27:24;;;;;;;9.50;4.28;;;;;;;16.06;88.16;101725.19;5032928;28;20137;-84
2022/08/22 05:29:59;;;;;;;6.18;4.22;;;;;;;16.06;88.43;101717.88;5031574;28;20054;-85
2022/08/22 05:32:36;;;;;;;7.15;3.65;;;;;;;16.08;88.47;101723.53;5048726;28;20430;-84
2022/08/22 05:35:07;;;;;;;8.43;4.70;;;;;;;16.07;88.43;101724.00;5032205;28;20042;-84
2022/08/22 05:37:47;;;;;;;6.80;4.32;;;;;;;16.11;88.25;101733.38;5015467;28;20046;-84
2022/08/22 05:40:22;;;;;;;8.55;4.63;;;;;;;16.13;88.13;101735.63;5033434;28;20578;-84
2022/08/22 05:42:49;;;;;;;10.32;4.95;;;;;;;16.14;87.94;101740.53;5031014;28;20077;-84
2022/08/22 05:45:17;;;;;;;10.27;4.40;;;;;;;16.14;87.98;101745.91;5031499;28;20058;-83
2022/08/22 05:47:48;;;;;;;7.47;4.80;;;;;;;16.17;87.99;101746.94;5031269;28;20092;-84
2022/08/22 05:50:38;;;;;;;10.48;4.80;;;;;;;16.20;87.59;101741.41;5031738;28;20108;-83
2022/08/22 05:53:10;;;;;;;18.23;4.80;;;;;;;16.20;88.28;101746.78;5032753;28;20517;-84
2022/08/22 05:56:01;;;;;;;16.50;4.70;;;;;;;16.23;88.22;101742.44;5030983;28;20046;-76
2022/08/22 05:58:51;;;;;;;12.45;4.38;;;;;;;16.23;88.25;101739.75;5031207;28;20076;-76
2022/08/22 06:01:35;;;;;;;4.85;3.67;;;;;;;16.28;89.10;101736.47;5031153;28;20112;-75
2022/08/22 06:04:43;;;;;;;7.93;4.15;;;;;;;16.31;88.08;101740.94;5030962;28;20058;-75
2022/08/22 06:07:30;;;;;;;10.20;4.50;;;;;;;16.36;88.17;101737.63;4991857;28;1119661;-74
2022/08/22 06:10:19;;;;;;;5.32;4.03;;;;;;;16.40;87.59;101746.25;5031621;28;20474;-76
2022/08/22 06:12:59;;;;;;;10.40;4.80;;;;;;;16.44;88.09;101744.13;5015856;28;20097;-75
2022/08/22 06:15:39;;;;;;;6.85;4.10;;;;;;;16.50;88.41;101747.69;5033356;28;20503;-75
2022/08/22 06:18:11;;;;;;;10.20;4.43;;;;;;;16.53;88.06;101748.72;5032330;28;20046;-75
2022/08/22 06:20:46;;;;;;;8.77;4.28;;;;;;;16.59;88.15;101760.34;5031923;28;20049;-74
2022/08/22 06:23:19;;;;;;;9.05;4.20;;;;;;;16.62;87.99;101754.81;5031849;28;20050;-76
2022/08/22 06:25:50;;;;;;;7.05;4.75;;;;;;;16.66;87.31;101757.34;5033025;28;20129;-76
2022/08/22 06:28:24;;;;;;;10.00;5.07;;;;;;;16.69;87.88;101758.38;5033182;28;20149;-79
2022/08/22 06:30:54;;;;;;;15.18;4.80;;;;;;;16.67;87.33;101762.28;5032633;28;21169;-77
2022/08/22 06:33:26;;;;;;;9.93;5.15;;;;;;;16.70;87.23;101754.50;5033050;28;20050;-77
2022/08/22 06:39:17;;;;;;;8.73;4.97;;;;;;;16.86;87.13;101764.84;5032383;28;20541;-76
2022/08/22 06:41:53;;;;;;;12.52;5.35;;;;;;;16.95;86.84;101770.16;5031273;28;20042;-75
2022/08/22 06:44:24;;;;;;;9.85;5.53;;;;;;;17.03;86.25;101774.00;5031492;28;20058;-76
2022/08/22 06:46:54;;;;;;;7.63;4.68;;;;;;;17.10;86.14;101773.66;5032695;28;20042;-77
2022/08/22 06:49:23;;;;;;;9.23;5.22;;;;;;;17.17;86.25;101772.56;5031010;28;20571;-77
2022/08/22 06:51:51;;;;;;;13.05;5.50;;;;;;;17.23;85.56;101771.44;5032102;28;20101;-77
2022/08/22 06:54:23;;;;;;;10.38;4.97;;;;;;;17.33;85.45;101782.88;5030793;28;20541;-77
2022/08/22 06:56:51;;;;;;;8.52;5.18;;;;;;;17.40;84.93;101774.44;5014508;28;20860;-77
2022/08/22 06:59:25;;;;;;;7.93;4.30;;;;;;;17.51;84.55;101782.75;5016794;28;20065;-76
2022/08/22 07:02:02;;;;;;;10.52;5.45;;;;;;;17.63;83.81;101780.97;5018718;28;20061;-74
2022/08/22 07:04:29;;;;;;;10.02;5.38;;;;;;;17.67;83.17;101782.31;5032369;28;20077;-75
2022/08/22 07:06:58;;;;;;;8.55;5.15;;;;;;;17.71;83.38;101787.50;5025677;28;20094;-75
2022/08/22 07:09:27;;;;;;;10.75;5.18;;;;;;;17.74;82.57;101778.50;5011891;28;20503;-76
2022/08/22 07:11:56;;;;;;;13.57;5.82;;;;;;;17.78;83.07;101781.00;4994496;28;20546;-76
2022/08/22 07:14:27;;;;;;;10.75;5.30;;;;;;;17.87;82.72;101783.63;5010752;28;20058;-76
2022/08/22 07:16:58;;;;;;;14.77;4.97;;;;;;;17.94;82.37;101778.59;5012419;28;20050;-76
2022/08/22 07:19:29;;;;;;;7.78;5.03;;;;;;;18.05;82.39;101786.09;5012548;28;20588;-75
2022/08/22 07:21:57;;;;;;;18.23;5.68;;;;;;;18.15;81.13;101773.28;5012382;28;20043;-76
2022/08/22 07:24:31;;;;;;;10.35;5.75;;;;;;;18.21;81.07;101768.72;5027103;28;20046;-77
2022/08/22 07:27:07;;;;;;;10.80;5.60;;;;;;;18.34;80.34;101769.16;5012468;28;20046;-77
2022/08/22 07:29:44;;;;;;;11.57;6.10;;;;;;;18.45;80.23;101774.69;5012507;28;20069;-76
2022/08/22 07:32:29;;;;;;;12.18;5.43;;;;;;;18.56;79.97;101772.16;5012278;28;20039;-75
2022/08/22 07:35:20;;;;;;;12.70;5.53;;;;;;;18.71;79.82;101769.44;5012322;28;20507;-76
2022/08/22 07:37:57;;;;;;;7.05;4.93;;;;;;;18.79;78.84;101770.53;5027094;28;20050;-76
2022/08/22 07:40:47;;;;;;;10.68;5.60;;;;;;;19.06;77.92;101766.69;5012403;28;20546;-75
2022/08/22 07:43:52;;;;;;;10.55;5.35;;;;;;;19.35;78.51;101765.00;5012534;28;20042;-74
2022/08/22 07:46:36;;;;;;;7.88;5.57;;;;;;;19.50;77.30;101766.41;5012309;28;20051;-74
2022/08/22 07:49:22;;;;;;;11.00;5.82;;;;;;;19.65;75.99;101769.00;5012245;28;20097;-74
2022/08/22 07:51:54;;;;;;;8.27;5.85;;;;;;;19.88;75.47;101767.97;5011774;28;20195;-73
2022/08/22 07:54:33;;;;;;;9.65;5.80;;;;;;;20.08;74.46;101769.84;5012374;28;20047;-73
2022/08/22 07:57:06;;;;;;;7.35;5.70;;;;;;;20.29;73.43;101752.28;5031803;28;20050;-73
2022/08/22 07:59:36;;;;;;;8.50;5.60;;;;;;;20.55;72.22;101756.88;5031395;28;20486;-74
2022/08/22 08:02:10;;;;;;;10.23;5.72;;;;;;;20.71;71.88;101747.38;5030014;28;20141;-74
2022/08/22 08:04:38;;;;;;;9.98;5.38;;;;;;;20.88;71.58;101742.72;5029796;28;20053;-73
2022/08/22 08:07:09;;;;;;;10.20;5.35;;;;;;;21.14;70.94;101745.28;5030184;28;20419;-75
2022/08/22 08:09:41;;;;;;;10.10;5.78;;;;;;;21.25;68.18;101742.59;5031094;28;20466;-74
2022/08/22 08:12:11;;;;;;;12.82;5.40;;;;;;;21.41;68.62;101733.78;5029879;28;20079;-74
2022/08/22 08:14:42;;;;;;;15.70;5.63;;;;;;;21.50;67.54;101727.38;5031243;28;20057;-76
2022/08/22 08:17:24;;;;;;;10.43;5.55;;;;;;;21.73;68.10;101725.41;5031381;28;20050;-76
2022/08/22 08:20:01;;;;;;;10.15;5.35;;;;;;;21.82;66.58;101731.31;5031199;28;20048;-75
2022/08/22 08:22:29;;;;;;;9.00;5.32;;;;;;;21.92;65.95;101729.09;5031243;28;20046;-75
2022/08/22 08:24:59;;;;;;;11.30;5.00;;;;;;;22.10;65.80;101733.28;5031220;28;20049;-76
2022/08/22 08:30:22;;;;;;;16.85;5.18;;;;;;;22.27;63.96;101725.84;5031484;28;20515;-77
2022/08/22 08:32:55;;;;;;;11.57;4.53;;;;;;;22.42;64.97;101725.53;5030081;28;20132;-75
2022/08/22 08:35:46;;;;;;;9.07;5.20;;;;;;;22.52;63.05;101722.06;5030810;28;20077;-76
2022/08/22 08:38:35;;;;;;;8.88;5.05;;;;;;;22.75;62.68;101730.13;5029757;28;20132;-76
2022/08/22 08:41:38;;;;;;;7.45;4.82;;;;;;;22.76;63.47;101726.91;5030018;28;20102;-76
2022/08/22 08:44:17;;;;;;;9.85;5.25;;;;;;;22.72;62.74;101723.72;5031208;28;20057;-76
2022/08/22 08:47:28;;;;;;;13.18;5.03;;;;;;;22.82;63.49;101719.47;5031017;28;20050;-75
2022/08/22 08:50:16;;;;;;;9.75;5.25;;;;;;;23.00;62.32;101717.41;5048155;28;20545;-73
2022/08/22 08:52:52;;;;;;;13.93;5.30;;;;;;;23.26;61.26;101723.88;5048706;28;20603;-73
2022/08/22 08:55:26;;;;;;;11.15;5.00;;;;;;;23.43;60.69;101723.78;5048965;28;20119;-74
2022/08/22 08:58:10;;;;;;;8.88;5.18;;;;;;;23.41;60.84;101723.53;5033325;28;20053;-73
2022/08/22 09:00:40;;;;;;;9.85;5.20;;;;;;;23.40;61.56;101726.75;5052120;28;20145;-72
2022/08/22 09:03:12;;;;;;;12.18;5.28;;;;;;;23.60;60.09;101720.94;5051760;28;20057;-75
2022/08/22 09:06:12;;;;;;;19.92;5.35;;;;;;;23.72;60.44;101727.03;5051066;28;20080;-73
2022/08/22 09:09:00;;;;;;;13.07;5.75;;;;;;;23.72;59.99;101722.31;5051401;28;20136;-74
2022/08/22 09:12:00;;;;;;;9.25;4.97;;;;;;;24.00;61.17;101724.75;5051333;28;20561;-75
2022/08/22 09:14:32;;;;;;;7.45;4.80;;;;;;;24.20;58.68;101721.59;5051511;28;20119;-78
2022/08/22 09:17:37;;;;;;;7.13;5.10;;;;;;;24.29;58.28;101711.66;5051850;28;20060;-75
2022/08/22 09:20:12;;;;;;;8.23;5.10;;;;;;;24.31;57.70;101720.03;5046526;28;20070;-76
2022/08/22 09:23:17;;;;;;;10.45;5.00;;;;;;;24.51;56.92;101709.38;5034188;28;20045;-76
2022/08/22 09:26:24;;;;;;;9.40;5.00;;;;;;;24.75;58.30;101714.03;5033953;28;20089;-74
2022/08/22 09:28:57;;;;;;;8.88;5.03;;;;;;;24.72;55.97;101706.91;5051084;28;20092;-73
2022/08/22 09:31:27;;;;;;;9.32;4.38;;;;;;;25.01;55.45;101710.72;5051193;28;20103;-70
2022/08/22 09:34:32;;;;;;;8.27;4.97;;;;;;;25.10;54.55;101704.16;5050982;28;20513;-71
2022/08/22 09:37:28;;;;;;;8.02;5.78;;;;;;;25.12;53.97;101709.81;5034325;28;20049;-72
2022/08/22 09:40:19;;;;;;;11.55;4.50;;;;;;;25.45;54.31;101714.75;5034385;28;20049;-71
2022/08/22 09:43:08;;;;;;;7.22;4.65;;;;;;;25.62;54.06;101711.00;5051061;28;20061;-73
2022/08/22 09:45:51;;;;;;;8.25;4.22;;;;;;;25.74;51.73;101702.13;5050857;28;20441;-72
2022/08/22 09:48:20;;;;;;;9.45;5.05;;;;;;;25.62;50.88;101698.09;5050764;28;20049;-73
2022/08/22 09:50:55;;;;;;;10.88;4.75;;;;;;;25.86;50.97;101706.13;5050789;28;20068;-72
2022/08/22 09:54:10;;;;;;;6.40;4.35;;;;;;;26.11;51.58;101697.72;5051166;28;20052;-73
2022/08/22 09:57:13;;;;;;;6.15;3.97;;;;;;;26.13;50.07;101695.22;5050896;28;20124;-71
2022/08/22 09:59:46;;;;;;;13.07;4.90;;;;;;;25.63;48.30;101694.09;5050803;28;20112;-72
2022/08/22 10:02:47;;;;;;;8.75;5.13;;;;;;;25.39;50.21;101695.03;5045687;28;20120;-71
2022/08/22 10:05:37;;;;;;;12.40;4.55;;;;;;;25.40;50.39;101690.31;5033509;28;20121;-72
2022/08/22 10:08:41;;;;;;;8.05;4.45;;;;;;;25.68;50.42;101687.13;5031377;28;20142;-71
2022/08/22 10:11:17;;;;;;;;;;;;;;;25.62;50.84;101689.19;5033015;28;20054;-74
2022/08/22 10:14:06;;;;;;;9.40;4.00;;;;;;;25.81;49.75;101687.88;5033053;28;19929;-73
2022/08/22 10:16:42;;;;;;;10.23;4.07;;;;;;;26.22;47.88;101684.59;5032749;28;20049;-72
2022/08/22 10:19:16;;;;;;;10.85;4.18;;;;;;;26.61;46.91;101680.34;5032871;28;20526;-72
2022/08/22 10:22:16;;;;;;;11.68;4.18;;;;;;;26.72;46.76;101682.84;5032969;28;20096;-75
2022/08/22 10:25:13;;;;;;;7.63;4.25;;;;;;;26.63;46.91;101679.81;5031689;28;20487;-74
2022/08/22 10:27:53;;;;;;;9.60;4.53;;;;;;;26.80;46.00;101666.50;5032501;28;20057;-73
2022/08/22 10:30:39;;;;;;;7.10;3.75;;;;;;;26.81;46.38;101673.44;5032773;28;20045;-73
2022/08/22 10:33:18;;;;;;;7.40;3.50;;;;;;;26.69;44.81;101672.25;5032507;28;20056;-74
2022/08/22 10:36:11;;;;;;;11.50;4.00;;;;;;;26.69;46.21;101662.03;5033127;28;20045;-73
2022/08/22 10:38:45;;;;;;;12.30;4.00;;;;;;;26.65;46.34;101652.72;5033018;28;20057;-74
2022/08/22 10:41:26;;;;;;;9.73;3.47;;;;;;;26.52;45.76;101659.69;5032947;28;20042;-73
2022/08/22 10:44:09;;;;;;;12.18;3.53;;;;;;;26.23;46.87;101656.06;5032677;28;20105;-74
2022/08/22 10:46:42;;;;;;;10.07;4.30;;;;;;;26.39;46.81;101656.97;5032190;28;20134;-74
2022/08/22 10:49:23;;;;;;;8.27;3.63;;;;;;;26.52;46.71;101651.50;5032192;28;20038;-74
2022/08/22 10:52:06;;;;;;;12.23;4.35;;;;;;;26.65;44.59;101647.25;5032463;28;20053;-74
2022/08/22 10:54:41;;;;;;;7.47;3.10;;;;;;;26.94;43.84;101650.78;5015677;28;20050;-73
2022/08/22 10:57:23;;;;;;;8.18;3.75;;;;;;;27.39;43.50;101645.72;5032663;28;20046;-74
2022/08/22 10:59:57;;;;;;;11.15;3.63;;;;;;;27.59;42.87;101651.72;5031688;28;20046;-74
2022/08/22 11:02:33;;;;;;;11.98;3.92;;;;;;;27.05;43.01;101656.03;5032576;28;20108;-75
2022/08/22 11:05:12;;;;;;;11.25;4.00;;;;;;;26.77;43.00;101645.75;5032588;28;20095;-75
2022/08/22 11:07:52;;;;;;;7.83;3.67;;;;;;;26.52;43.91;101648.75;5032118;28;20050;-75
2022/08/22 11:10:39;;;;;;;10.13;3.72;;;;;;;26.53;44.41;101655.69;5030916;28;20600;-76
2022/08/22 11:13:29;;;;;;;10.45;3.60;;;;;;;26.65;44.81;101653.44;5030619;28;20050;-75
2022/08/22 11:16:03;;;;;;;9.35;3.63;;;;;;;26.60;44.81;101659.03;5031675;28;20042;-75
2022/08/22 11:18:39;;;;;;;10.75;3.75;;;;;;;26.69;44.45;101658.59;5032054;28;20054;-75
2022/08/22 11:21:15;;;;;;;6.60;3.17;;;;;;;26.94;44.83;101662.47;5031542;28;20074;-75
2022/08/22 11:23:47;;;;;;;6.18;3.40;;;;;;;27.06;44.69;101652.78;5032284;28;20045;-75
2022/08/22 11:26:33;;;;;;;8.82;4.18;;;;;;;27.14;43.00;101645.38;5032280;28;20052;-75
2022/08/22 11:29:22;;;;;;;11.02;3.00;;;;;;;26.97;41.94;101647.75;5015417;28;20054;-75
2022/08/22 11:32:03;;;;;;;5.32;2.83;;;;;;;26.77;42.92;101638.28;5013866;28;20054;-74
2022/08/22 11:34:48;;;;;;;5.28;3.28;;;;;;;26.83;43.03;101638.13;5032134;28;20046;-75
2022/08/22 11:37:35;;;;;;;8.18;3.42;;;;;;;26.88;43.86;101631.81;5031985;28;20052;-75
2022/08/22 11:40:52;;;;;;;5.95;3.35;;;;;;;26.98;43.73;101641.03;5031207;28;20050;-75
2022/08/22 11:43:51;;;;;;;10.05;3.17;;;;;;;27.08;42.76;101631.09;5030722;28;20323;-75
2022/08/22 11:46:28;;;;;;;8.40;3.50;;;;;;;27.11;41.99;101632.03;5031141;28;20049;-76
2022/08/22 11:49:26;;;;;;;8.13;3.38;;;;;;;27.12;42.47;101634.25;5031043;28;20509;-75
2022/08/22 11:52:30;;;;;;;5.13;2.78;;;;;;;27.59;42.89;101636.06;5031371;28;20045;-76
2022/08/22 11:55:12;;;;;;;8.80;3.17;;;;;;;27.96;40.23;101634.78;5031575;28;20086;-74
2022/08/22 11:57:46;;;;;;;9.95;3.05;;;;;;;28.15;39.95;101623.53;5031105;28;20049;-75
2022/08/22 12:00:23;;;;;;;6.40;2.97;;;;;;;28.08;41.60;101630.44;5031537;28;20604;-75
2022/08/22 12:03:13;;;;;;;4.88;2.90;;;;;;;27.73;41.41;101623.72;5031798;28;20050;-75
2022/08/22 12:05:51;;;;;;;6.55;3.10;;;;;;;27.58;40.79;101620.16;5031448;28;20050;-75
2022/08/22 12:08:29;;;;;;;7.43;3.22;;;;;;;27.75;41.49;101623.91;5031583;28;20058;-75
2022/08/22 12:11:33;;;;;;;8.23;3.40;;;;;;;27.69;42.25;101622.59;5030232;28;20045;-75
2022/08/22 12:14:04;;;;;;;5.90;3.05;;;;;;;27.61;41.38;101624.53;5031279;28;20201;-75
2022/08/22 12:17:02;;;;;;;7.60;3.22;;;;;;;27.54;40.53;101618.50;5031232;28;20050;-74
2022/08/22 12:19:52;;;;;;;7.15;3.40;;;;;;;27.47;40.48;101623.91;5031480;28;20052;-75
2022/08/22 12:22:52;;;;;;;4.32;2.95;;;;;;;27.59;40.60;101616.91;5029811;28;20515;-75
2022/08/22 12:25:55;;;;;;;5.50;3.10;;;;;;;27.53;40.52;101619.03;5031579;28;20050;-74
2022/08/22 12:28:26;;;;;;;6.93;2.90;;;;;;;27.66;40.08;101615.47;5029016;28;20054;-73
2022/08/22 12:31:11;;;;;;;;;;;;;;;28.16;40.22;101616.78;5031458;28;20054;-73
2022/08/22 12:34:11;;;;;;;6.95;2.80;;;;;;;28.43;40.21;101611.75;5033578;28;19932;-73
2022/08/22 12:36:57;;;;;;;5.38;2.65;;;;;;;28.57;40.72;101610.34;5034841;28;20495;-73
2022/08/22 12:39:45;;;;;;;5.22;2.90;;;;;;;28.33;40.07;101617.06;5034725;28;20112;-73
2022/08/22 12:42:35;;;;;;;8.75;3.47;;;;;;;27.80;40.87;101606.63;5016576;28;20053;-73